Delaware, OH

12:33 AM EDT on October 20, 2017 (GMT -0400)
Delaware Municipal

Weather History for KDLZ - February, 2014

Change the Weather History Date:

Friday, February 14, 2014

  Actual Average Record
Temperature  
Mean Temperature 26 °F -  
Max Temperature 32 °F 34 °F 66 °F (1990)
Min Temperature 19 °F 17 °F -3 °F (1988)
Degree Days  
Heating Degree Days 40    
Moisture  
Dew Point 18 °F    
Average Humidity 76    
Maximum Humidity 93    
Minimum Humidity 55    
Precipitation  
Precipitation 0.00 in - - ()
Sea Level Pressure  
Sea Level Pressure 29.66 in    
Wind  
Wind Speed 9 mph (WSW)    
Max Wind Speed 23 mph    
Max Gust Speed 33 mph    
Visibility 8 miles    
Events Snow    
Averages and records for this station are not official NWS values.
T = Trace of Precipitation, MM = Missing Value Source: NWS Daily Summary

Daily Weather History Graph

Daily Weather History Graph

Search for Another Location

Airport or City:

Trip Planner

Search our weather history database for the weather conditions in past years. The results will help you decide how hot, cold, wet, or windy it might be!

Date:

Astronomy

Feb. 14, 2014 Rise Set
Actual Time 7:26 AM EST 6:06 PM EST
Civil Twilight 6:59 AM EST 6:34 PM EST
Nautical Twilight 6:27 AM EST 7:06 PM EST
Astronomical Twilight 5:55 AM EST 7:38 PM EST
Moon 6:09 PM EST (2/14) 6:53 AM EST (2/14)
Length of Visible Light 11h 35m
Length of Day
10h 39m
Full, 100% of the Moon is Illuminated
Feb 14
Full
Feb 14
Full
Feb 22
Last Quarter
Mar 1
New
Mar 8
First Quarter

Hourly Weather History & Observations

Time (EST) Temp. Windchill Dew Point Humidity Pressure Visibility Wind Dir Wind Speed Gust Speed Precip Events Conditions
12:15 AM 28.4 °F 22.2 °F 14.0 °F 55% 29.57 in 10.0 mi SSW 5.8 mph - N/A   Unknown
12:35 AM 28.4 °F 19.7 °F 14.0 °F 55% 29.56 in 10.0 mi SSW 9.2 mph - N/A   Unknown
12:56 AM 30.2 °F 25.4 °F 15.8 °F 55% 29.55 in 10.0 mi SSW 4.6 mph - N/A   Unknown
1:15 AM 30.2 °F 22.6 °F 15.8 °F 55% 29.55 in 10.0 mi SSW 8.1 mph - N/A   Unknown
1:35 AM 30.2 °F 22.6 °F 17.6 °F 60% 29.54 in 10.0 mi SSW 8.1 mph - N/A   Unknown
1:56 AM 30.2 °F 22.6 °F 17.6 °F 60% 29.53 in 10.0 mi SSW 8.1 mph - N/A   Unknown
2:15 AM 30.2 °F 21.9 °F 17.6 °F 60% 29.53 in 10.0 mi SSW 9.2 mph - N/A   Unknown
2:35 AM 30.2 °F 21.9 °F 19.4 °F 64% 29.52 in 10.0 mi SSW 9.2 mph - N/A   Unknown
2:56 AM 30.2 °F 22.6 °F 19.4 °F 64% 29.52 in 10.0 mi SW 8.1 mph - N/A   Unknown
3:15 AM 32.0 °F 23.0 °F 19.4 °F 60% 29.51 in 10.0 mi SW 11.5 mph - N/A   Unknown
3:35 AM 32.0 °F 22.1 °F 19.4 °F 60% 29.51 in 10.0 mi SW 13.8 mph 17.3 mph N/A   Unknown
3:56 AM 32.0 °F 23.0 °F 21.2 °F 64% 29.51 in 10.0 mi WSW 11.5 mph 19.6 mph N/A   Unknown
4:15 AM 32.0 °F 23.0 °F 21.2 °F 64% 29.52 in 10.0 mi West 11.5 mph 20.7 mph N/A   Unknown
4:35 AM 32.0 °F 22.1 °F 23.0 °F 69% 29.52 in 10.0 mi West 13.8 mph 25.3 mph N/A   Unknown
4:56 AM 32.0 °F 22.5 °F 23.0 °F 69% 29.53 in 10.0 mi West 12.7 mph 21.9 mph N/A   Unknown
5:15 AM 30.2 °F 16.8 °F 19.4 °F 64% 29.55 in 5.0 mi West 23.0 mph 33.4 mph N/A   Haze
5:35 AM 26.6 °F 12.0 °F 17.6 °F 69% 29.57 in 10.0 mi West 23.0 mph 29.9 mph N/A   Unknown
5:56 AM 26.6 °F 14.3 °F 17.6 °F 69% 29.59 in 10.0 mi West 16.1 mph 24.2 mph N/A   Unknown
6:15 AM 24.8 °F 9.6 °F 19.4 °F 80% 29.60 in 10.0 mi WNW 23.0 mph 28.8 mph N/A   Unknown
6:35 AM 23.0 °F 11.1 °F 17.6 °F 80% 29.60 in 10.0 mi West 12.7 mph 18.4 mph N/A   Unknown
6:56 AM 23.0 °F 9.6 °F 17.6 °F 80% 29.60 in 10.0 mi West 16.1 mph 24.2 mph N/A   Unknown
7:15 AM 23.0 °F 11.7 °F 17.6 °F 80% 29.60 in 10.0 mi West 11.5 mph - N/A   Unknown
7:35 AM 23.0 °F 11.7 °F 17.6 °F 80% 29.62 in 10.0 mi West 11.5 mph 17.3 mph N/A   Unknown
7:56 AM 23.0 °F 13.1 °F 17.6 °F 80% 29.64 in 10.0 mi West 9.2 mph - N/A   Unknown
8:15 AM 23.0 °F 12.4 °F 17.6 °F 80% 29.65 in 10.0 mi WSW 10.4 mph 16.1 mph N/A   Unknown
8:35 AM 23.0 °F 13.1 °F 17.6 °F 80% 29.65 in 10.0 mi West 9.2 mph 18.4 mph N/A   Unknown
8:56 AM 23.0 °F 13.9 °F 17.6 °F 80% 29.66 in 10.0 mi West 8.1 mph - N/A   Unknown
9:15 AM 24.8 °F 12.9 °F 17.6 °F 74% 29.68 in 10.0 mi WSW 13.8 mph - N/A   Unknown
9:35 AM 23.0 °F 11.1 °F 17.6 °F 80% 29.68 in 10.0 mi WSW 12.7 mph 17.3 mph N/A   Unknown
9:56 AM 23.0 °F 11.7 °F 17.6 °F 80% 29.69 in 10.0 mi SW 11.5 mph - N/A   Unknown
10:15 AM 23.0 °F 12.4 °F 17.6 °F 80% 29.70 in 10.0 mi WSW 10.4 mph - N/A   Unknown
10:35 AM 23.0 °F 12.4 °F 15.8 °F 74% 29.71 in 10.0 mi WSW 10.4 mph - N/A   Unknown
10:56 AM 23.0 °F 11.7 °F 15.8 °F 74% 29.71 in 10.0 mi SW 11.5 mph - N/A   Unknown
11:15 AM 23.0 °F 11.7 °F 15.8 °F 74% 29.72 in 10.0 mi WSW 11.5 mph - N/A   Unknown
11:35 AM 23.0 °F 11.7 °F 15.8 °F 74% 29.74 in 7.0 mi SW 11.5 mph - N/A   Unknown
11:56 AM 23.0 °F 10.1 °F 15.8 °F 74% 29.74 in 7.0 mi WSW 15.0 mph 18.4 mph N/A   Unknown
12:15 PM 23.0 °F 11.7 °F 17.6 °F 80% 29.74 in 7.0 mi WSW 11.5 mph 16.1 mph N/A   Unknown
12:35 PM 23.0 °F 11.7 °F 15.8 °F 74% 29.74 in 10.0 mi WSW 11.5 mph - N/A   Unknown
12:56 PM 23.0 °F 11.7 °F 15.8 °F 74% 29.73 in 10.0 mi WSW 11.5 mph - N/A   Unknown
1:15 PM 23.0 °F 14.7 °F 15.8 °F 74% 29.73 in 10.0 mi West 6.9 mph 10.4 mph N/A   Unknown
1:35 PM 24.8 °F 15.3 °F 15.8 °F 69% 29.71 in 10.0 mi WSW 9.2 mph - N/A   Unknown
1:56 PM 26.6 °F 16.8 °F 15.8 °F 64% 29.71 in 10.0 mi SW 10.4 mph - N/A   Unknown
2:15 PM 26.6 °F 18.2 °F 15.8 °F 64% 29.71 in 10.0 mi WSW 8.1 mph - N/A   Unknown
2:35 PM 26.6 °F 17.5 °F 15.8 °F 64% 29.70 in 10.0 mi WSW 9.2 mph - N/A   Overcast
2:56 PM 26.6 °F 16.8 °F 17.6 °F 69% 29.70 in 10.0 mi SW 10.4 mph - N/A   Overcast
3:15 PM 26.6 °F 18.2 °F 17.6 °F 69% 29.68 in 10.0 mi SW 8.1 mph - N/A   Overcast
3:35 PM 26.6 °F 19.1 °F 15.8 °F 64% 29.70 in 10.0 mi WSW 6.9 mph - N/A   Overcast
3:56 PM 26.6 °F 18.2 °F 15.8 °F 64% 29.70 in 10.0 mi SW 8.1 mph - N/A   Overcast
4:15 PM 26.6 °F 19.1 °F 17.6 °F 69% 29.69 in 10.0 mi SW 6.9 mph - N/A   Overcast
4:35 PM 26.6 °F 21.2 °F 17.6 °F 69% 29.70 in 10.0 mi SW 4.6 mph - N/A   Overcast
4:56 PM 26.6 °F 22.6 °F 17.6 °F 69% 29.69 in 10.0 mi SW 3.5 mph - N/A   Overcast
5:15 PM 26.6 °F 22.6 °F 19.4 °F 74% 29.68 in 5.0 mi South 3.5 mph - N/A Snow Light Snow
5:35 PM 24.8 °F 19.1 °F 19.4 °F 80% 29.70 in 1.2 mi SW 4.6 mph - N/A Snow Light Snow
5:56 PM 24.8 °F 20.5 °F 21.2 °F 86% 29.71 in 0.8 mi SW 3.5 mph - N/A Snow Light Snow
6:15 PM 23.0 °F - 21.2 °F 93% 29.70 in 1.5 mi Calm Calm - N/A Snow Light Snow
6:35 PM 23.0 °F - 21.2 °F 93% 29.70 in 2.0 mi Calm Calm - N/A Snow Light Snow
6:56 PM 23.0 °F 18.4 °F 21.2 °F 93% 29.71 in 2.5 mi NNW 3.5 mph - N/A Snow Light Snow
7:15 PM 23.0 °F 18.4 °F 21.2 °F 93% 29.72 in 2.0 mi NNW 3.5 mph - N/A Snow Light Snow
7:35 PM 23.0 °F 17.0 °F 21.2 °F 93% 29.72 in 1.8 mi NNW 4.6 mph - N/A Snow Light Snow
7:55 PM 23.0 °F 17.0 °F 21.2 °F 93% 29.73 in 2.0 mi NNW 4.6 mph - N/A Snow Light Snow
8:15 PM 23.0 °F 17.0 °F 21.2 °F 93% 29.73 in 2.0 mi NNW 4.6 mph - N/A Snow Light Snow
8:35 PM 21.2 °F 13.6 °F 19.4 °F 93% 29.73 in 1.8 mi NNW 5.8 mph - N/A Snow Light Snow
8:55 PM 21.2 °F 11.7 °F 19.4 °F 93% 29.72 in 3.0 mi NNW 8.1 mph - N/A Snow Light Snow
9:15 PM 21.2 °F 10.9 °F 19.4 °F 93% 29.72 in 3.0 mi NNW 9.2 mph - N/A Snow Light Snow
9:35 PM 21.2 °F 10.9 °F 19.4 °F 93% 29.72 in 3.0 mi NNW 9.2 mph - N/A Snow Light Snow
9:55 PM 19.4 °F 9.5 °F 17.6 °F 93% 29.73 in 4.0 mi NNW 8.1 mph - N/A Snow Light Snow
10:15 PM 19.4 °F 10.4 °F 17.6 °F 93% 29.74 in 5.0 mi NNW 6.9 mph - N/A   Overcast
10:36 PM 19.4 °F 9.5 °F 17.6 °F 93% 29.75 in 5.0 mi NNW 8.1 mph - N/A   Overcast
10:55 PM 19.4 °F 7.9 °F 17.6 °F 93% 29.75 in 4.0 mi NNW 10.4 mph - N/A Snow Light Snow
11:15 PM 19.4 °F 9.5 °F 17.6 °F 93% 29.75 in 2.0 mi NNW 8.1 mph - N/A Snow Light Snow
11:36 PM 19.4 °F 7.9 °F 17.6 °F 93% 29.75 in 3.0 mi NNW 10.4 mph - N/A Snow Light Snow
11:55 PM 19.4 °F 9.5 °F 17.6 °F 93% 29.75 in 3.0 mi NNW 8.1 mph - N/A Snow Light Snow